Time;durP1;ratioP1;P1;durP2;ratioP2;P2;SDS_P1;SDS_P2;PMS_P1;PMS_P2;Temp;Humidity;BMP_temperature;BMP_pressure;BME280_temperature;BME280_humidity;BME280_pressure;Samples;Min_cycle;Max_cycle;Signal;HPM_P1;HPM_P2
2023/09/17 00:01:32;;;;;;;2.92;2.40;;;;;;;21.66;61.14;101302.75;4988391;28;20037;-54
2023/09/17 00:03:58;;;;;;;3.13;2.83;;;;;;;21.65;61.35;101304.63;4990254;28;20038;-54
2023/09/17 00:06:24;;;;;;;3.28;3.03;;;;;;;21.65;60.96;101310.03;4987371;28;20038;-54
2023/09/17 00:08:49;;;;;;;3.53;3.22;;;;;;;21.65;60.85;101309.19;4985294;28;20051;-54
2023/09/17 00:11:15;;;;;;;3.10;2.90;;;;;;;21.65;60.79;101304.63;4989778;28;20520;-55
2023/09/17 00:13:41;;;;;;;2.78;2.58;;;;;;;21.65;61.19;101301.91;4985916;28;20034;-54
2023/09/17 00:16:07;;;;;;;3.13;2.92;;;;;;;21.64;61.41;101291.22;4991401;28;20432;-54
2023/09/17 00:18:32;;;;;;;3.92;3.33;;;;;;;21.64;60.89;101277.66;4986853;28;20029;-54
2023/09/17 00:20:58;;;;;;;3.05;2.85;;;;;;;21.65;61.23;101276.69;4986472;28;20033;-54
2023/09/17 00:23:23;;;;;;;2.90;2.70;;;;;;;21.65;60.87;101276.69;4987289;28;20496;-54
2023/09/17 00:25:48;;;;;;;3.15;2.95;;;;;;;21.64;61.35;101264.97;4982497;28;20034;-55
2023/09/17 00:28:14;;;;;;;3.30;3.00;;;;;;;21.65;61.42;101271.25;4982846;28;20061;-54
2023/09/17 00:30:39;;;;;;;2.90;2.70;;;;;;;21.63;61.27;101266.00;4995351;28;20376;-54
2023/09/17 00:33:05;;;;;;;3.75;3.10;;;;;;;21.64;61.35;101266.84;4982185;28;20503;-55
2023/09/17 00:35:30;;;;;;;3.63;3.33;;;;;;;21.64;61.41;101269.53;4980162;28;20062;-54
2023/09/17 00:37:56;;;;;;;3.45;3.15;;;;;;;21.63;60.98;101274.13;4990051;28;20030;-55
2023/09/17 00:40:24;;;;;;;3.75;3.10;;;;;;;21.63;61.26;101281.41;4983326;28;20085;-54
2023/09/17 00:42:49;;;;;;;3.60;3.30;;;;;;;21.64;61.26;101293.94;4992804;28;20034;-55
2023/09/17 00:45:15;;;;;;;3.40;3.20;;;;;;;21.63;61.10;101295.81;4986857;28;20576;-54
2023/09/17 00:47:41;;;;;;;3.65;3.35;;;;;;;21.61;61.37;101286.09;4983136;28;20519;-54
2023/09/17 00:50:10;;;;;;;3.35;3.05;;;;;;;21.63;60.98;101289.53;4991356;28;20152;-54
2023/09/17 00:52:36;;;;;;;2.80;2.60;;;;;;;21.62;61.06;101296.78;4980057;28;20129;-54
2023/09/17 00:55:03;;;;;;;3.30;3.00;;;;;;;21.62;61.50;101285.13;4984388;28;20041;-55
2023/09/17 00:57:30;;;;;;;2.75;2.55;;;;;;;21.62;60.93;101283.25;4985252;28;20540;-55
2023/09/17 00:59:55;;;;;;;3.33;3.03;;;;;;;21.62;61.41;101282.41;4986101;28;20037;-54
2023/09/17 01:02:21;;;;;;;2.70;2.50;;;;;;;21.61;61.21;101280.69;4986193;28;20036;-55
2023/09/17 01:04:49;;;;;;;3.25;2.95;;;;;;;21.62;60.94;101282.41;4988293;28;20045;-54
2023/09/17 01:07:18;;;;;;;3.50;3.00;;;;;;;21.62;61.04;101277.00;4987645;28;20046;-55
2023/09/17 01:09:43;;;;;;;2.90;2.70;;;;;;;21.62;61.30;101277.81;4988617;28;20061;-59
2023/09/17 01:12:09;;;;;;;3.03;2.72;;;;;;;;;;4987803;28;20058;-55
2023/09/17 01:14:36;;;;;;;2.88;2.67;;;;;;;21.62;60.73;101280.53;4990152;28;20034;-55
2023/09/17 01:17:03;;;;;;;3.30;3.00;;;;;;;21.61;61.31;101269.84;4986588;28;20513;-55
2023/09/17 01:19:29;;;;;;;3.15;2.95;;;;;;;21.60;61.38;101273.59;4979652;28;20469;-55
2023/09/17 01:22:16;;;;;;;3.08;2.78;;;;;;;21.64;60.89;101274.97;4987638;28;20038;-55
2023/09/17 01:25:07;;;;;;;2.95;2.75;;;;;;;21.61;61.13;101259.00;4986028;28;20035;-55
2023/09/17 01:27:34;;;;;;;3.15;2.85;;;;;;;21.61;61.16;101253.59;4979790;28;20033;-55
2023/09/17 01:29:59;;;;;;;3.08;2.88;;;;;;;21.60;61.24;101250.03;4980571;28;20030;-54
2023/09/17 01:32:24;;;;;;;3.17;2.88;;;;;;;21.60;61.00;101251.91;4983349;28;20555;-55
2023/09/17 01:34:52;;;;;;;3.15;2.85;;;;;;;21.60;60.92;101246.50;4982650;28;20068;-55
2023/09/17 01:37:24;;;;;;;3.15;2.85;;;;;;;21.60;61.16;101247.34;4985995;28;20031;-55
2023/09/17 01:39:58;;;;;;;2.83;2.63;;;;;;;21.59;60.80;101251.06;4984796;28;20357;-55
2023/09/17 01:42:25;;;;;;;3.10;2.90;;;;;;;21.59;61.18;101247.47;4985443;28;20037;-55
2023/09/17 01:44:52;;;;;;;3.25;2.95;;;;;;;21.58;61.13;101245.81;4986253;28;20113;-55
2023/09/17 01:47:19;;;;;;;3.17;2.88;;;;;;;21.58;60.82;101248.50;4984739;28;20030;-55
2023/09/17 01:49:46;;;;;;;3.30;3.00;;;;;;;21.58;61.12;101246.66;4986201;28;20038;-55
2023/09/17 01:52:12;;;;;;;2.75;2.55;;;;;;;21.58;60.82;101245.81;4985454;28;20389;-55
2023/09/17 01:54:38;;;;;;;3.05;2.75;;;;;;;21.59;60.88;101236.66;4992354;28;20054;-55
2023/09/17 01:57:03;;;;;;;2.75;2.55;;;;;;;21.58;60.93;101237.69;4982699;28;20548;-56
2023/09/17 01:59:29;;;;;;;3.45;2.83;;;;;;;21.58;61.07;101230.38;4982301;28;20084;-55
2023/09/17 02:01:54;;;;;;;2.80;2.60;;;;;;;21.59;60.87;101223.09;4990432;28;20108;-55
2023/09/17 02:04:19;;;;;;;2.78;2.58;;;;;;;21.58;60.73;101219.53;4982097;28;20034;-54
2023/09/17 02:06:45;;;;;;;3.05;2.75;;;;;;;21.58;60.75;101213.28;4995685;28;20034;-55
2023/09/17 02:09:12;;;;;;;2.90;2.70;;;;;;;21.57;61.16;101217.88;4987476;28;20039;-55
2023/09/17 02:11:38;;;;;;;2.47;2.28;;;;;;;21.58;61.13;101226.84;4990527;28;20034;-55
2023/09/17 02:14:04;;;;;;;2.65;2.47;;;;;;;21.58;61.20;101229.53;4993110;28;20034;-54
2023/09/17 02:16:31;;;;;;;2.72;2.53;;;;;;;21.57;61.16;101233.25;4988507;28;20034;-55
2023/09/17 02:18:57;;;;;;;2.83;2.63;;;;;;;21.57;60.89;101235.97;4988914;28;20121;-55
2023/09/17 02:21:23;;;;;;;2.50;2.30;;;;;;;21.57;61.18;101234.13;4988113;28;20121;-55
2023/09/17 02:23:48;;;;;;;2.85;2.65;;;;;;;21.56;61.26;101229.69;4986036;28;20080;-54
2023/09/17 02:26:15;;;;;;;3.17;2.97;;;;;;;21.55;61.27;101216.31;4988686;28;20118;-55
2023/09/17 02:28:41;;;;;;;3.08;2.78;;;;;;;21.55;60.92;101217.19;4985873;28;20082;-54
2023/09/17 02:31:06;;;;;;;2.85;2.65;;;;;;;21.55;60.84;101209.06;4986476;28;20038;-56
2023/09/17 02:33:32;;;;;;;2.70;2.50;;;;;;;21.56;60.88;101209.91;4984481;28;20065;-54
2023/09/17 02:35:58;;;;;;;2.78;2.58;;;;;;;21.55;61.30;101211.75;4992355;28;20026;-54
2023/09/17 02:38:23;;;;;;;3.05;2.85;;;;;;;21.55;60.64;101202.75;4990233;28;20484;-55
2023/09/17 02:40:48;;;;;;;2.90;2.70;;;;;;;21.55;61.26;101206.34;4989765;28;20038;-55
2023/09/17 02:43:14;;;;;;;2.70;2.50;;;;;;;21.55;60.83;101200.06;4990279;28;20038;-55
2023/09/17 02:45:40;;;;;;;2.85;2.33;;;;;;;21.55;61.11;101192.78;4984656;28;20510;-55
2023/09/17 02:48:06;;;;;;;3.38;2.92;;;;;;;21.54;61.37;101180.25;4994249;28;20053;-54
2023/09/17 02:50:31;;;;;;;3.28;2.85;;;;;;;21.55;60.24;101186.50;4986377;28;20354;-54
2023/09/17 02:52:57;;;;;;;2.50;2.30;;;;;;;21.54;60.84;101182.94;4983841;28;20055;-55
2023/09/17 02:55:22;;;;;;;2.75;2.55;;;;;;;21.54;60.62;101179.41;4995235;28;20117;-55
2023/09/17 02:57:49;;;;;;;2.92;2.70;;;;;;;21.53;60.83;101181.25;4982716;28;20473;-54
2023/09/17 03:00:17;;;;;;;2.60;2.40;;;;;;;21.54;61.00;101184.81;4992255;28;20038;-54
2023/09/17 03:02:47;;;;;;;2.78;2.55;;;;;;;21.54;60.78;101184.81;4986264;28;20093;-55
2023/09/17 03:05:14;;;;;;;2.88;2.55;;;;;;;21.53;61.21;101186.66;4988118;28;20771;-55
2023/09/17 03:07:40;;;;;;;2.40;2.20;;;;;;;21.54;61.09;101182.13;4989836;28;20027;-55
2023/09/17 03:10:10;;;;;;;2.60;2.40;;;;;;;21.53;60.86;101183.09;4985319;28;20042;-55
2023/09/17 03:12:36;;;;;;;3.08;2.40;;;;;;;21.54;60.73;101176.69;4986908;28;20488;-55
2023/09/17 03:15:02;;;;;;;3.10;2.70;;;;;;;21.53;60.89;101175.81;4994355;28;20030;-55
2023/09/17 03:17:27;;;;;;;2.90;2.67;;;;;;;21.52;61.15;101171.44;4987236;28;20037;-55
2023/09/17 03:19:52;;;;;;;2.50;2.30;;;;;;;21.53;60.86;101169.56;4988842;28;20036;-55
2023/09/17 03:22:18;;;;;;;3.15;2.85;;;;;;;21.52;60.79;101173.28;4985838;28;20035;-55
2023/09/17 03:24:43;;;;;;;2.92;2.72;;;;;;;21.53;60.91;101166.84;4988535;28;20060;-55
2023/09/17 03:27:08;;;;;;;2.90;2.67;;;;;;;21.52;61.06;101174.13;4993305;28;20035;-54
2023/09/17 03:29:34;;;;;;;2.53;2.33;;;;;;;21.51;61.21;101177.00;4988371;28;20091;-55
2023/09/17 03:31:59;;;;;;;2.88;2.60;;;;;;;21.52;61.22;101171.44;4987809;28;20447;-55
2023/09/17 03:34:24;;;;;;;3.47;2.30;;;;;;;21.51;61.07;101177.84;4990206;28;20042;-55
2023/09/17 03:36:50;;;;;;;2.50;2.30;;;;;;;21.51;60.73;101179.72;4996047;28;20097;-56
2023/09/17 03:39:16;;;;;;;2.60;2.40;;;;;;;21.51;61.06;101171.59;4991602;28;20034;-55
2023/09/17 03:41:41;;;;;;;2.95;2.65;;;;;;;21.52;60.99;101173.28;4988416;28;20026;-55
2023/09/17 03:44:09;;;;;;;3.10;2.83;;;;;;;21.51;60.71;101177.00;4981188;28;20045;-55
2023/09/17 03:46:36;;;;;;;2.70;2.50;;;;;;;21.51;61.14;101174.28;4992419;28;20058;-55
2023/09/17 03:49:02;;;;;;;3.80;2.95;;;;;;;21.51;60.67;101168.88;4987743;28;20069;-55
2023/09/17 03:51:28;;;;;;;3.03;2.75;;;;;;;21.49;60.74;101174.44;4991680;28;20022;-55
2023/09/17 03:53:54;;;;;;;2.85;2.60;;;;;;;21.49;61.09;101166.31;4985041;28;20058;-55
2023/09/17 03:56:20;;;;;;;2.60;2.40;;;;;;;21.49;60.86;101174.44;4988600;28;20421;-55
2023/09/17 03:58:45;;;;;;;2.15;2.00;;;;;;;21.48;61.06;101173.59;4990991;28;20035;-55
2023/09/17 04:01:13;;;;;;;2.60;2.40;;;;;;;21.48;61.14;101173.59;4987845;28;20038;-55
2023/09/17 04:03:38;;;;;;;2.45;2.22;;;;;;;21.48;61.12;101176.31;4987234;28;20039;-55
2023/09/17 04:06:04;;;;;;;2.30;2.10;;;;;;;21.48;60.57;101173.59;4991366;28;20045;-55
2023/09/17 04:08:30;;;;;;;2.50;2.30;;;;;;;21.48;60.97;101179.03;4985855;28;20026;-54
2023/09/17 04:10:56;;;;;;;2.55;2.35;;;;;;;21.47;60.60;101174.59;4987105;28;20030;-55
2023/09/17 04:13:21;;;;;;;2.42;2.22;;;;;;;21.49;60.78;101174.44;4986645;28;20030;-55
2023/09/17 04:15:48;;;;;;;3.03;2.80;;;;;;;21.47;60.65;101171.91;4987254;28;20041;-55
2023/09/17 04:18:14;;;;;;;2.35;2.15;;;;;;;21.47;60.79;101166.47;4987863;28;20040;-55
2023/09/17 04:20:39;;;;;;;2.50;2.30;;;;;;;21.47;61.10;101163.78;4988219;28;20034;-55
2023/09/17 04:23:06;;;;;;;2.50;2.30;;;;;;;21.46;60.98;101159.38;4990624;28;20183;-55
2023/09/17 04:25:32;;;;;;;2.30;2.10;;;;;;;21.45;60.76;101168.50;4987869;28;20034;-55
2023/09/17 04:27:58;;;;;;;2.33;2.13;;;;;;;21.46;61.05;101169.38;4984246;28;20556;-55
2023/09/17 04:30:23;;;;;;;2.70;2.50;;;;;;;21.46;61.29;101167.50;4985707;28;20113;-54
2023/09/17 04:32:50;;;;;;;3.08;2.55;;;;;;;21.45;60.82;101171.22;4991995;28;20038;-55
2023/09/17 04:35:17;;;;;;;2.50;2.30;;;;;;;21.46;61.05;101166.66;4981780;28;20054;-55
2023/09/17 04:37:43;;;;;;;3.28;2.20;;;;;;;21.46;60.70;101161.25;4991416;28;20485;-55
2023/09/17 04:40:11;;;;;;;2.35;2.15;;;;;;;21.46;60.66;101159.38;4985772;28;20035;-55
2023/09/17 04:42:43;;;;;;;2.72;2.53;;;;;;;21.45;61.02;101165.78;4986383;28;20035;-55
2023/09/17 04:45:09;;;;;;;2.60;2.40;;;;;;;21.45;60.80;101163.09;4990682;28;20503;-56
2023/09/17 04:47:36;;;;;;;2.30;2.10;;;;;;;21.45;61.04;101165.78;4986768;28;20042;-55
2023/09/17 04:50:08;;;;;;;3.13;2.25;;;;;;;21.44;60.65;101160.56;4985595;28;20365;-55
2023/09/17 04:52:36;;;;;;;2.40;2.20;;;;;;;21.44;60.94;101157.84;4986601;28;20501;-55
2023/09/17 04:55:03;;;;;;;2.40;2.20;;;;;;;21.44;61.12;101155.97;4985737;28;20492;-55
2023/09/17 04:57:28;;;;;;;2.40;2.00;;;;;;;21.45;60.72;101160.38;4988048;28;20469;-55
2023/09/17 04:59:54;;;;;;;2.25;2.05;;;;;;;21.44;61.11;101155.97;4986897;28;20033;-55
2023/09/17 05:02:21;;;;;;;2.38;2.20;;;;;;;21.44;60.98;101149.72;4987882;28;20073;-55
2023/09/17 05:04:47;;;;;;;2.40;2.20;;;;;;;21.44;61.10;101161.41;4985937;28;20041;-55
2023/09/17 05:07:12;;;;;;;2.47;2.28;;;;;;;21.44;61.12;101155.97;4982131;28;20405;-55
2023/09/17 05:09:37;;;;;;;2.47;2.28;;;;;;;21.43;60.94;101154.25;4988287;28;20384;-55
2023/09/17 05:12:05;;;;;;;2.28;2.10;;;;;;;21.43;61.05;101159.66;4983682;28;20022;-55
2023/09/17 05:14:30;;;;;;;2.20;2.00;;;;;;;21.43;60.91;101158.81;4979881;28;20469;-54
2023/09/17 05:16:55;;;;;;;2.60;2.40;;;;;;;21.43;60.61;101159.66;4986964;28;20062;-55
2023/09/17 05:19:21;;;;;;;2.58;2.38;;;;;;;21.43;60.74;101165.06;4981964;28;20038;-55
2023/09/17 05:21:46;;;;;;;2.33;2.15;;;;;;;21.42;61.05;101160.69;4988488;28;20419;-55
2023/09/17 05:24:12;;;;;;;2.25;2.15;;;;;;;21.43;60.59;101164.22;4983353;28;20089;-54
2023/09/17 05:26:37;;;;;;;2.28;2.08;;;;;;;21.43;60.73;101167.78;4984079;28;20085;-55
2023/09/17 05:29:02;;;;;;;2.13;2.03;;;;;;;21.42;60.62;101163.41;4982907;28;20095;-55
2023/09/17 05:31:28;;;;;;;2.78;2.58;;;;;;;21.42;60.60;101174.22;4992387;28;20109;-55
2023/09/17 05:33:53;;;;;;;2.58;2.38;;;;;;;21.42;60.94;101163.41;4979346;28;20440;-55
2023/09/17 05:36:19;;;;;;;2.10;2.00;;;;;;;21.42;60.62;101168.81;4984479;28;20049;-56
2023/09/17 05:38:44;;;;;;;2.53;2.33;;;;;;;21.42;60.92;101166.09;4984844;28;20031;-55
2023/09/17 05:41:12;;;;;;;2.40;2.20;;;;;;;21.42;60.67;101162.56;4986896;28;20042;-55
2023/09/17 05:43:38;;;;;;;2.70;2.50;;;;;;;21.41;60.49;101164.38;4985815;28;20046;-55
2023/09/17 05:46:04;;;;;;;2.35;2.15;;;;;;;21.40;61.00;101165.41;4987190;28;20492;-55
2023/09/17 05:48:30;;;;;;;2.50;2.30;;;;;;;21.41;61.02;101177.09;4987169;28;20030;-55
2023/09/17 05:50:55;;;;;;;2.38;2.17;;;;;;;21.41;60.73;101174.38;4986870;28;20039;-55
2023/09/17 05:53:20;;;;;;;2.72;2.53;;;;;;;21.41;61.07;101169.81;4982993;28;20499;-55
2023/09/17 05:55:46;;;;;;;2.13;1.92;;;;;;;21.40;60.87;101170.84;4983478;28;20108;-55
2023/09/17 05:58:11;;;;;;;2.13;2.00;;;;;;;21.41;60.52;101168.97;4985190;28;20540;-55
2023/09/17 06:00:36;;;;;;;1.92;1.83;;;;;;;21.41;60.84;101171.69;4982434;28;20027;-55
2023/09/17 06:03:03;;;;;;;1.92;1.83;;;;;;;21.40;60.78;101164.53;4986349;28;20057;-55
2023/09/17 06:05:28;;;;;;;2.40;2.22;;;;;;;21.39;60.50;101166.41;4986427;28;20062;-55
2023/09/17 06:07:54;;;;;;;2.17;2.08;;;;;;;21.41;60.79;101166.25;4988656;28;20054;-55
2023/09/17 06:10:20;;;;;;;2.58;2.38;;;;;;;21.39;60.88;101169.13;4986273;28;20572;-55
2023/09/17 06:12:46;;;;;;;2.08;1.98;;;;;;;21.40;60.74;101164.53;4979848;28;20118;-55
2023/09/17 06:15:11;;;;;;;2.20;2.10;;;;;;;21.40;60.54;101159.13;4991727;28;20022;-55
2023/09/17 06:17:36;;;;;;;2.35;2.15;;;;;;;21.39;60.81;101163.72;4980628;28;20085;-55
2023/09/17 06:20:02;;;;;;;2.67;2.47;;;;;;;21.39;60.52;101166.41;4981495;28;20480;-55
2023/09/17 06:22:27;;;;;;;3.13;2.22;;;;;;;21.38;60.87;101167.44;4981908;28;20399;-55
2023/09/17 06:24:53;;;;;;;2.28;2.08;;;;;;;21.39;61.00;101165.56;4994948;28;20516;-55
2023/09/17 06:27:18;;;;;;;2.45;2.25;;;;;;;21.39;60.63;101174.53;4980764;28;20039;-55
2023/09/17 06:29:44;;;;;;;2.40;2.20;;;;;;;21.38;60.47;101164.72;4988758;28;20058;-55
2023/09/17 06:32:10;;;;;;;2.35;2.15;;;;;;;21.38;60.47;101164.72;4982378;28;20516;-55
2023/09/17 06:34:36;;;;;;;2.53;2.30;;;;;;;21.38;60.76;101166.56;4984154;28;20034;-55
2023/09/17 06:37:02;;;;;;;3.33;2.45;;;;;;;21.38;60.78;101170.16;4986464;28;20035;-55
2023/09/17 06:39:27;;;;;;;2.33;2.13;;;;;;;21.38;61.17;101158.44;4982198;28;20046;-55
2023/09/17 06:41:53;;;;;;;2.40;2.20;;;;;;;21.38;60.86;101172.00;4983776;28;20369;-55
2023/09/17 06:44:18;;;;;;;2.67;2.28;;;;;;;21.37;60.86;101168.44;4983460;28;20128;-55
2023/09/17 06:46:44;;;;;;;2.65;2.45;;;;;;;21.38;60.58;101172.84;4985547;28;20056;-55
2023/09/17 06:49:10;;;;;;;2.08;1.88;;;;;;;21.38;60.53;101162.03;4984207;28;20475;-59
2023/09/17 06:51:36;;;;;;;2.25;2.13;;;;;;;21.38;60.53;101166.56;4986741;28;20030;-53
2023/09/17 06:54:02;;;;;;;2.50;2.30;;;;;;;21.37;60.79;101165.72;4989168;28;20045;-55
2023/09/17 06:56:29;;;;;;;3.35;2.40;;;;;;;21.37;60.49;101160.31;4990378;28;20136;-57
2023/09/17 06:58:54;;;;;;;1.90;1.80;;;;;;;21.37;60.79;101160.31;4983032;28;20054;-55
2023/09/17 07:01:20;;;;;;;2.05;1.77;;;;;;;21.37;60.77;101165.72;4987604;28;20123;-55
2023/09/17 07:03:45;;;;;;;2.10;2.00;;;;;;;21.37;60.74;101159.47;4981205;28;20492;-55
2023/09/17 07:06:10;;;;;;;1.98;1.88;;;;;;;21.37;60.57;101162.19;4988219;28;20415;-55
2023/09/17 07:08:36;;;;;;;2.47;2.28;;;;;;;21.36;60.96;101158.63;4990903;28;20042;-55
2023/09/17 07:11:04;;;;;;;2.10;2.00;;;;;;;21.37;60.82;101156.75;4987809;28;20080;-55
2023/09/17 07:13:29;;;;;;;2.15;2.05;;;;;;;21.37;60.78;101165.72;4985808;28;20388;-55
2023/09/17 07:15:54;;;;;;;1.98;1.88;;;;;;;21.37;60.57;101160.31;4992517;28;20053;-55
2023/09/17 07:18:20;;;;;;;2.20;2.10;;;;;;;21.37;60.77;101165.72;4985691;28;20073;-55
2023/09/17 07:20:46;;;;;;;2.92;1.77;;;;;;;21.36;60.52;101165.88;4984556;28;20105;-54
2023/09/17 07:23:12;;;;;;;2.17;1.98;;;;;;;21.36;60.80;101164.03;4987247;28;20125;-55
2023/09/17 07:25:37;;;;;;;2.20;1.85;;;;;;;21.36;60.29;101164.03;4984046;28;20499;-55
2023/09/17 07:28:07;;;;;;;2.10;2.00;;;;;;;21.37;60.54;101165.72;4995420;28;20428;-55
2023/09/17 07:30:36;;;;;;;1.80;1.70;;;;;;;21.36;60.90;101160.47;4990872;28;20165;-57
2023/09/17 07:33:02;;;;;;;2.60;2.40;;;;;;;21.36;60.66;101160.47;4988606;28;20034;-55
2023/09/17 07:35:28;;;;;;;2.25;1.92;;;;;;;21.36;60.71;101150.50;4981957;28;20054;-55
2023/09/17 07:37:54;;;;;;;2.10;2.00;;;;;;;21.37;60.26;101156.75;4991180;28;20047;-55
2023/09/17 07:40:19;;;;;;;2.00;1.90;;;;;;;21.37;60.85;101154.91;4995451;28;20049;-55
2023/09/17 07:42:45;;;;;;;2.35;2.15;;;;;;;21.37;60.39;101152.19;4989715;28;20034;-55
2023/09/17 07:45:12;;;;;;;1.83;1.73;;;;;;;21.37;60.24;101148.63;4989401;28;20129;-53
2023/09/17 07:47:38;;;;;;;1.90;1.80;;;;;;;21.37;60.63;101156.75;4983937;28;20034;-53
2023/09/17 07:50:04;;;;;;;2.42;2.22;;;;;;;21.38;60.71;101158.44;4979265;28;20022;-54
2023/09/17 07:52:29;;;;;;;1.90;1.80;;;;;;;21.37;60.22;101160.31;4987093;28;20092;-55
2023/09/17 07:54:55;;;;;;;2.28;2.08;;;;;;;21.37;60.59;101160.31;4987381;28;20481;-53
2023/09/17 07:57:20;;;;;;;2.50;2.08;;;;;;;21.37;60.45;101160.31;4986578;28;20044;-53
2023/09/17 07:59:47;;;;;;;1.80;1.70;;;;;;;21.37;60.49;101160.31;4984736;28;20112;-53
2023/09/17 08:02:13;;;;;;;2.40;2.20;;;;;;;21.37;60.41;101164.88;4986064;28;20446;-53
2023/09/17 08:04:38;;;;;;;1.88;1.77;;;;;;;21.38;60.57;101167.44;4983345;28;20038;-53
2023/09/17 08:07:04;;;;;;;1.90;1.80;;;;;;;21.37;60.45;101171.16;4989516;28;20044;-53
2023/09/17 08:09:30;;;;;;;2.10;2.00;;;;;;;21.36;60.78;101172.16;4986811;28;20053;-54
2023/09/17 08:11:55;;;;;;;1.85;1.75;;;;;;;21.36;60.22;101174.88;4985252;28;20030;-53
2023/09/17 08:14:22;;;;;;;1.88;1.77;;;;;;;21.36;60.71;101172.16;4989829;28;20045;-54
2023/09/17 08:16:48;;;;;;;2.22;2.03;;;;;;;21.37;60.65;101175.72;4984335;28;20710;-54
2023/09/17 08:19:14;;;;;;;1.80;1.70;;;;;;;21.36;60.52;101172.16;4991017;28;20069;-54
2023/09/17 08:21:39;;;;;;;2.28;2.08;;;;;;;21.37;60.28;101176.56;4989716;28;20030;-54
2023/09/17 08:24:05;;;;;;;1.95;1.85;;;;;;;21.37;60.33;101173.84;4986036;28;20038;-54
2023/09/17 08:26:30;;;;;;;1.95;1.80;;;;;;;21.37;60.22;101181.97;4980248;28;20035;-54
2023/09/17 08:28:56;;;;;;;1.90;1.80;;;;;;;21.37;60.77;101176.56;4988937;28;20034;-54
2023/09/17 08:31:25;;;;;;;2.17;2.00;;;;;;;21.37;60.17;101176.56;4990106;28;20030;-54
2023/09/17 08:33:51;;;;;;;2.33;2.13;;;;;;;21.37;60.61;101173.84;4981876;28;20045;-54
2023/09/17 08:36:19;;;;;;;1.80;1.70;;;;;;;21.36;60.52;101174.88;4986140;28;20034;-55
2023/09/17 08:38:45;;;;;;;1.92;1.83;;;;;;;21.37;60.41;101176.56;4985990;28;20539;-54
2023/09/17 08:41:12;;;;;;;2.08;1.98;;;;;;;21.37;60.22;101183.84;4986570;28;20126;-54
2023/09/17 08:43:39;;;;;;;2.17;2.03;;;;;;;21.37;60.11;101175.72;4981105;28;20117;-54
2023/09/17 08:46:04;;;;;;;2.30;2.10;;;;;;;21.37;60.13;101179.28;4988694;28;20042;-54
2023/09/17 08:48:30;;;;;;;1.90;1.80;;;;;;;21.38;60.16;101172.84;4984223;28;20031;-54
2023/09/17 08:50:58;;;;;;;1.95;1.85;;;;;;;21.37;60.16;101175.72;4983530;28;20246;-55
2023/09/17 08:53:28;;;;;;;1.90;1.80;;;;;;;21.37;60.65;101179.28;4984084;28;20037;-55
2023/09/17 08:55:57;;;;;;;2.00;1.90;;;;;;;21.38;60.22;101185.53;4986741;28;20562;-55
2023/09/17 08:58:28;;;;;;;1.80;1.70;;;;;;;21.38;60.07;101194.53;4985846;28;20026;-55
2023/09/17 09:00:58;;;;;;;1.83;1.73;;;;;;;21.39;60.11;101187.25;4985633;28;20491;-55
2023/09/17 09:03:27;;;;;;;2.17;1.98;;;;;;;21.38;60.66;101199.94;4985774;28;20034;-54
2023/09/17 09:05:55;;;;;;;1.85;1.75;;;;;;;21.38;60.50;101205.38;4980551;28;20366;-55
2023/09/17 09:08:21;;;;;;;1.45;1.35;;;;;;;21.38;60.22;101199.94;4987192;28;20473;-55
2023/09/17 09:10:46;;;;;;;2.95;1.67;;;;;;;21.37;60.65;101194.69;4987333;28;20038;-55
2023/09/17 09:13:12;;;;;;;2.03;1.83;;;;;;;21.39;60.49;101201.63;4981983;28;20428;-55
2023/09/17 09:15:38;;;;;;;2.10;2.00;;;;;;;21.39;60.26;101206.22;4987951;28;20022;-62
2023/09/17 09:18:03;;;;;;;1.80;1.70;;;;;;;21.39;60.33;101211.63;4983501;28;20033;-54
2023/09/17 09:20:29;;;;;;;2.63;1.95;;;;;;;21.38;60.31;101213.50;4982774;28;20471;-54
2023/09/17 09:22:54;;;;;;;2.10;1.90;;;;;;;21.38;60.12;101216.19;4984321;28;20495;-55
2023/09/17 09:25:20;;;;;;;1.90;1.70;;;;;;;21.39;60.05;101209.75;4983345;28;20038;-55
2023/09/17 09:27:45;;;;;;;2.10;2.00;;;;;;;21.39;60.47;101215.16;4986444;28;20030;-55
2023/09/17 09:30:14;;;;;;;1.88;1.77;;;;;;;21.38;60.10;101210.78;4987100;28;20396;-55
2023/09/17 09:32:40;;;;;;;1.73;1.63;;;;;;;21.39;60.38;101208.91;4991799;28;20050;-54
2023/09/17 09:35:07;;;;;;;2.10;2.00;;;;;;;21.38;60.19;101199.94;4987386;28;20033;-54
2023/09/17 09:37:34;;;;;;;2.20;2.10;;;;;;;21.38;60.50;101202.66;4991759;28;20484;-55
2023/09/17 09:40:00;;;;;;;2.38;2.20;;;;;;;21.39;60.45;101196.22;4989610;28;20161;-54
2023/09/17 09:42:26;;;;;;;1.92;1.83;;;;;;;21.39;60.49;101196.22;4987937;28;20066;-55
2023/09/17 09:44:52;;;;;;;2.38;2.17;;;;;;;21.39;60.46;101189.94;4991169;28;20038;-55
2023/09/17 09:47:21;;;;;;;2.45;2.25;;;;;;;21.38;60.05;101193.66;4989909;28;20074;-55
2023/09/17 09:49:46;;;;;;;2.15;2.05;;;;;;;21.39;60.18;101190.78;4982775;28;20110;-55
2023/09/17 09:52:14;;;;;;;2.08;1.98;;;;;;;21.38;60.54;101189.13;4988569;28;20461;-55
2023/09/17 09:54:40;;;;;;;2.30;2.10;;;;;;;21.38;60.03;101199.94;4985569;28;20046;-55
2023/09/17 09:57:06;;;;;;;2.38;2.17;;;;;;;21.39;60.05;101203.50;4984046;28;20105;-54
2023/09/17 09:59:34;;;;;;;2.47;2.28;;;;;;;21.38;60.03;101199.94;4986938;28;20069;-55
2023/09/17 10:02:02;;;;;;;2.10;2.00;;;;;;;21.39;59.95;101195.38;4983112;28;20065;-55
2023/09/17 10:04:27;;;;;;;2.35;2.15;;;;;;;21.39;60.19;101195.38;4986868;28;20042;-55
2023/09/17 10:06:53;;;;;;;2.15;2.03;;;;;;;21.39;59.96;101195.38;4983842;28;20030;-55
2023/09/17 10:09:18;;;;;;;2.40;2.20;;;;;;;21.39;60.40;101181.81;4989177;28;20034;-55
2023/09/17 10:11:44;;;;;;;2.50;2.30;;;;;;;21.39;60.28;101198.06;4987507;28;20042;-55
2023/09/17 10:14:09;;;;;;;2.78;2.05;;;;;;;21.39;59.95;101196.22;4985801;28;20495;-55
2023/09/17 10:16:36;;;;;;;2.35;2.20;;;;;;;21.40;60.11;101188.91;4987372;28;20031;-55
2023/09/17 10:19:04;;;;;;;2.35;2.15;;;;;;;21.39;60.31;101187.25;4985700;28;20121;-55
2023/09/17 10:21:32;;;;;;;2.40;2.20;;;;;;;21.39;60.39;101187.25;4992542;28;20080;-55
2023/09/17 10:23:58;;;;;;;3.40;2.30;;;;;;;21.40;59.86;101184.38;4984185;28;20030;-55
2023/09/17 10:26:24;;;;;;;2.58;2.22;;;;;;;21.40;60.37;101187.09;4990735;28;20042;-55
2023/09/17 10:28:50;;;;;;;2.45;2.25;;;;;;;21.40;60.33;101178.97;4987836;28;20042;-55
2023/09/17 10:31:16;;;;;;;2.85;2.65;;;;;;;21.40;60.25;101176.25;4992917;28;20034;-55
2023/09/17 10:33:44;;;;;;;3.25;2.35;;;;;;;21.40;60.01;101173.53;4991100;28;20077;-55
2023/09/17 10:36:11;;;;;;;2.67;2.47;;;;;;;21.41;60.11;101169.81;4991118;28;20057;-55
2023/09/17 10:38:39;;;;;;;2.83;2.42;;;;;;;21.41;59.95;101175.22;4990396;28;20489;-55
2023/09/17 10:41:05;;;;;;;2.33;2.13;;;;;;;21.42;59.99;101174.22;4993025;28;20544;-55
2023/09/17 10:43:36;;;;;;;2.25;2.05;;;;;;;21.42;60.57;101171.53;4991198;28;20452;-55
2023/09/17 10:46:05;;;;;;;2.30;2.20;;;;;;;21.42;60.07;101174.22;4991252;28;20426;-55
2023/09/17 10:48:32;;;;;;;3.15;2.85;;;;;;;21.44;60.11;101160.56;4995687;28;20034;-58
2023/09/17 10:50:58;;;;;;;2.50;2.30;;;;;;;21.42;60.41;101174.22;4991817;28;20100;-55
2023/09/17 10:53:28;;;;;;;2.67;2.47;;;;;;;21.43;60.29;101173.19;4991213;28;20034;-55
2023/09/17 10:56:08;;;;;;;2.22;2.08;;;;;;;21.46;60.03;101174.78;4990744;28;20588;-56
2023/09/17 10:58:45;;;;;;;2.58;2.38;;;;;;;21.45;60.11;101173.91;4987525;28;20539;-55
2023/09/17 11:01:15;;;;;;;2.90;2.70;;;;;;;21.44;60.42;101174.94;4983980;28;20637;-55
2023/09/17 11:03:50;;;;;;;2.63;2.42;;;;;;;21.45;60.14;101173.91;4993215;28;20028;-59
2023/09/17 11:06:23;;;;;;;2.85;2.65;;;;;;;21.45;60.23;101167.66;4984790;28;20121;-56
2023/09/17 11:08:54;;;;;;;2.78;2.58;;;;;;;21.45;59.91;101168.50;4988868;28;20026;-55
2023/09/17 11:11:22;;;;;;;3.20;2.90;;;;;;;21.46;60.27;101169.38;4990244;28;20041;-55
2023/09/17 11:13:48;;;;;;;2.80;2.60;;;;;;;21.47;60.35;101177.31;4991168;28;20038;-55
2023/09/17 11:16:20;;;;;;;2.75;2.13;;;;;;;21.48;60.27;101172.78;4989507;28;20515;-55
2023/09/17 11:19:13;;;;;;;3.10;2.80;;;;;;;21.50;60.15;101167.19;4986149;28;20088;-55
2023/09/17 11:21:41;;;;;;;2.65;2.45;;;;;;;21.48;60.27;101168.19;4986625;28;20049;-55
2023/09/17 11:24:10;;;;;;;3.00;2.80;;;;;;;21.48;60.40;101173.59;4987510;28;20370;-55